Time;durP1;ratioP1;P1;durP2;ratioP2;P2;SDS_P1;SDS_P2;PMS_P1;PMS_P2;Temp;Humidity;BMP_temperature;BMP_pressure;BME280_temperature;BME280_humidity;BME280_pressure;Samples;Min_cycle;Max_cycle;Signal;HPM_P1;HPM_P2
2021/12/26 00:00:35;;;;;;;0.60;0.60;;;;;;;2.31;97.37;95887.84;29395;211;63004;-72
2021/12/26 00:01:14;;;;;;;0.60;0.60;;;;;;;2.31;97.34;95887.84;29395;224;63008;-71
2021/12/26 00:01:52;;;;;;;0.60;0.60;;;;;;;2.32;97.56;95881.41;29395;217;63005;-70
2021/12/26 00:02:23;;;;;;;0.60;0.60;;;;;;;2.34;97.32;95890.00;29395;203;63009;-69
2021/12/26 00:02:58;;;;;;;0.60;0.60;;;;;;;2.34;97.68;95888.13;29395;216;63005;-55
2021/12/26 00:03:32;;;;;;;0.60;0.60;;;;;;;2.35;97.75;95881.69;29395;247;63009;-55
2021/12/26 00:04:05;;;;;;;0.60;0.60;;;;;;;2.36;97.85;95885.19;29395;224;63005;-55
2021/12/26 00:04:42;;;;;;;0.60;0.60;;;;;;;2.34;97.61;95885.44;29395;228;63009;-70
2021/12/26 00:05:18;;;;;;;0.60;0.60;;;;;;;2.34;97.72;95876.59;29394;279;64005;-69
2021/12/26 00:05:50;;;;;;;0.60;0.60;;;;;;;2.34;97.60;95881.97;29395;213;63009;-69
2021/12/26 00:06:26;;;;;;;0.60;0.60;;;;;;;2.34;97.83;95877.41;29395;241;63004;-70
2021/12/26 00:06:58;;;;;;;0.60;0.60;;;;;;;2.34;97.83;95881.97;29395;236;63009;-69
2021/12/26 00:07:33;;;;;;;0.60;0.60;;;;;;;2.34;97.73;95880.09;29395;223;63004;-69
2021/12/26 00:08:05;;;;;;;0.60;0.60;;;;;;;2.35;97.72;95883.56;29395;196;63024;-70
2021/12/26 00:08:38;;;;;;;3.72;3.62;;;;;;;2.34;97.99;95882.75;29395;202;63004;-71
2021/12/26 00:09:10;;;;;;;0.60;0.60;;;;;;;2.35;98.05;95880.88;29395;247;63009;-55
2021/12/26 00:09:41;;;;;;;0.60;0.60;;;;;;;2.37;98.01;95886.78;29395;229;63005;-70
2021/12/26 00:10:15;;;;;;;0.60;0.60;;;;;;;2.35;97.86;95876.34;29394;199;64009;-70
2021/12/26 00:10:48;;;;;;;0.60;0.60;;;;;;;2.34;97.93;95882.75;29395;223;63005;-55
2021/12/26 00:11:20;;;;;;;0.60;0.60;;;;;;;2.35;98.05;95878.22;29395;239;63009;-68
2021/12/26 00:11:52;;;;;;;0.60;0.60;;;;;;;2.35;98.29;95878.22;29395;203;63018;-55
2021/12/26 00:12:23;;;;;;;0.60;0.60;;;;;;;2.36;98.30;95874.47;29395;240;63009;-69
2021/12/26 00:12:56;;;;;;;0.60;0.60;;;;;;;2.37;98.02;95880.63;29395;229;63005;-69
2021/12/26 00:13:27;;;;;;;0.60;0.60;;;;;;;2.35;97.91;95880.88;29395;214;63009;-69
2021/12/26 00:13:58;;;;;;;0.60;0.60;;;;;;;2.33;98.25;95881.16;29395;203;63004;-72
2021/12/26 00:14:31;;;;;;;0.60;0.60;;;;;;;2.32;98.09;95879.53;29394;202;64009;-70
2021/12/26 00:15:05;;;;;;;0.60;0.60;;;;;;;2.32;98.20;95873.38;29395;196;63004;-69
2021/12/26 00:15:38;;;;;;;0.60;0.60;;;;;;;2.32;98.11;95884.91;29395;217;63008;-55
2021/12/26 00:16:11;;;;;;;0.60;0.60;;;;;;;2.33;98.03;95875.00;29395;203;63004;-69
2021/12/26 00:16:49;;;;;;;0.60;0.60;;;;;;;2.33;98.27;95881.16;29394;243;64009;-69
2021/12/26 00:17:23;;;;;;;0.60;0.60;;;;;;;2.35;98.36;95875.53;29373;292;63005;-69
2021/12/26 00:17:56;;;;;;;0.60;0.60;;;;;;;2.36;98.45;95877.16;29395;219;63009;-75
2021/12/26 00:18:29;;;;;;;0.60;0.60;;;;;;;2.37;98.36;95870.72;29395;196;63012;-70
2021/12/26 00:19:01;;;;;;;0.60;0.60;;;;;;;2.39;98.21;95884.66;29395;222;63009;-69
2021/12/26 00:19:33;;;;;;;0.60;0.60;;;;;;;2.39;98.33;95884.66;29395;221;63005;-69
2021/12/26 00:20:08;;;;;;;0.60;0.60;;;;;;;2.40;98.44;95880.91;29395;207;63009;-68
2021/12/26 00:20:41;;;;;;;0.60;0.60;;;;;;;2.42;98.52;95877.97;29395;202;63004;-69
2021/12/26 00:21:16;;;;;;;0.60;0.60;;;;;;;2.44;98.60;95886.50;29394;218;64009;-69
2021/12/26 00:21:48;;;;;;;0.60;0.60;;;;;;;2.45;98.55;95882.75;29395;246;63004;-67
2021/12/26 00:22:21;;;;;;;0.60;0.60;;;;;;;2.46;98.64;95879.81;29395;230;63009;-68
2021/12/26 00:22:53;;;;;;;0.60;0.60;;;;;;;2.47;98.51;95875.25;29394;237;64004;-69
2021/12/26 00:23:26;;;;;;;0.60;0.60;;;;;;;2.47;98.41;95883.28;29395;232;63008;-69
2021/12/26 00:23:59;;;;;;;0.60;0.60;;;;;;;2.47;98.69;95880.63;29395;282;63005;-70
2021/12/26 00:24:32;;;;;;;0.60;0.60;;;;;;;2.45;98.62;95877.41;29394;239;64009;-71
2021/12/26 00:25:09;;;;;;;0.60;0.60;;;;;;;2.44;98.35;95873.91;29373;293;63005;-69
2021/12/26 00:25:46;;;;;;;0.60;0.60;;;;;;;2.43;98.64;95884.91;29395;216;63009;-71
2021/12/26 00:26:18;;;;;;;0.60;0.60;;;;;;;2.41;98.55;95879.03;29395;295;63005;-71
2021/12/26 00:26:50;;;;;;;0.60;0.60;;;;;;;2.39;98.28;95887.31;29395;289;63009;-70
2021/12/26 00:27:22;;;;;;;0.60;0.60;;;;;;;2.38;98.43;95876.87;29395;207;63005;-70
2021/12/26 00:27:56;;;;;;;0.60;0.60;;;;;;;2.37;98.67;95878.75;29395;239;63009;-55
2021/12/26 00:28:29;;;;;;;23.20;21.75;;;;;;;2.38;98.51;95877.69;29385;234;65004;-69
2021/12/26 00:29:01;;;;;;;0.60;0.60;;;;;;;2.39;98.87;95878.50;29373;197;63009;-70
2021/12/26 00:29:32;;;;;;;2.95;2.85;;;;;;;2.41;99.21;95879.84;29394;230;64004;-71
2021/12/26 00:30:09;;;;;;;0.60;0.60;;;;;;;2.40;98.92;95885.44;29395;325;63009;-69
2021/12/26 00:30:44;;;;;;;0.60;0.60;;;;;;;2.37;98.64;95881.44;29395;199;63004;-70
2021/12/26 00:31:17;;;;;;;0.60;0.60;;;;;;;2.35;98.79;95879.00;29395;259;63008;-71
2021/12/26 00:31:49;;;;;;;0.60;0.60;;;;;;;2.35;98.75;95875.53;29395;230;63005;-72
2021/12/26 00:32:25;;;;;;;0.60;0.60;;;;;;;2.36;98.98;95874.47;29395;206;63009;-69
2021/12/26 00:32:57;;;;;;;0.60;0.60;;;;;;;2.35;98.79;95878.22;29395;204;63005;-69
2021/12/26 00:33:29;;;;;;;0.60;0.60;;;;;;;2.36;98.69;95879.81;29394;205;64009;-68
2021/12/26 00:34:00;;;;;;;0.50;0.50;;;;;;;2.38;98.90;95876.87;29395;202;63005;-69
2021/12/26 00:34:35;;;;;;;0.60;0.60;;;;;;;2.38;99.04;95877.69;29394;199;64009;-69
2021/12/26 00:35:08;;;;;;;0.60;0.60;;;;;;;2.40;99.06;95878.22;29394;292;64005;-71
2021/12/26 00:35:41;;;;;;;0.60;0.60;;;;;;;2.40;98.85;95880.91;29395;246;63009;-67
2021/12/26 00:36:14;;;;;;;0.60;0.60;;;;;;;2.43;98.82;95871.50;29395;234;63009;-68
2021/12/26 00:36:46;;;;;;;0.60;0.60;;;;;;;2.43;98.93;95875.00;29395;214;63009;-70
2021/12/26 00:37:22;;;;;;;0.60;0.60;;;;;;;2.43;98.78;95883.03;29394;203;64004;-70
2021/12/26 00:37:54;;;;;;;0.60;0.60;;;;;;;2.44;99.06;95878.47;29394;235;64009;-69
2021/12/26 00:38:27;;;;;;;0.60;0.60;;;;;;;2.45;99.03;95878.22;29395;202;63004;-68
2021/12/26 00:38:58;;;;;;;0.60;0.60;;;;;;;2.47;98.87;95881.41;29395;230;63015;-55
2021/12/26 00:39:30;;;;;;;0.60;0.60;;;;;;;2.49;98.67;95879.28;29395;204;63005;-68
2021/12/26 00:40:03;;;;;;;1.23;1.23;;;;;;;2.51;98.84;95879.81;29395;203;63021;-68
2021/12/26 00:40:35;;;;;;;0.60;0.60;;;;;;;2.51;98.87;95881.69;29395;225;63005;-68
2021/12/26 00:41:06;;;;;;;0.60;0.60;;;;;;;2.49;98.36;95879.28;29395;300;63009;-68
2021/12/26 00:41:39;;;;;;;0.60;0.60;;;;;;;2.49;98.70;95878.47;29395;209;63005;-69
2021/12/26 00:42:13;;;;;;;0.60;0.60;;;;;;;2.50;98.31;95880.91;29395;245;63009;-68
2021/12/26 00:42:48;;;;;;;0.60;0.60;;;;;;;2.51;98.38;95879.03;29394;232;64004;-67
2021/12/26 00:43:21;;;;;;;0.60;0.60;;;;;;;2.49;98.49;95879.28;29395;213;63009;-71
2021/12/26 00:43:54;;;;;;;0.60;0.60;;;;;;;2.49;98.36;95879.28;29395;289;63004;-68
2021/12/26 00:44:28;;;;;;;0.60;0.60;;;;;;;2.48;98.36;95880.34;29395;238;63009;-70
2021/12/26 00:44:59;;;;;;;0.60;0.60;;;;;;;2.44;97.89;95878.47;29395;202;63004;-71
2021/12/26 00:45:32;;;;;;;0.60;0.60;;;;;;;2.46;98.11;95877.13;29395;228;63008;-55
2021/12/26 00:46:04;;;;;;;0.60;0.60;;;;;;;2.54;97.97;95879.28;29395;287;63004;-67
2021/12/26 00:46:36;;;;;;;0.60;0.60;;;;;;;2.62;97.90;95881.44;29395;220;63026;-67
2021/12/26 00:47:10;;;;;;;0.60;0.60;;;;;;;2.68;97.48;95877.72;29394;239;64005;-65
2021/12/26 00:47:41;;;;;;;0.60;0.60;;;;;;;2.71;97.10;95880.94;29395;200;63009;-66
2021/12/26 00:48:13;;;;;;;0.60;0.60;;;;;;;2.71;96.76;95875.56;29395;202;63005;-55
2021/12/26 00:48:44;;;;;;;0.60;0.60;;;;;;;2.66;96.43;95879.84;29395;293;63009;-67
2021/12/26 00:49:16;;;;;;;0.60;0.60;;;;;;;2.63;96.37;95880.38;29395;199;63005;-67
2021/12/26 00:49:47;;;;;;;0.60;0.60;;;;;;;2.59;96.15;95879.31;29395;197;63009;-68
2021/12/26 00:50:24;;;;;;;0.60;0.60;;;;;;;2.55;96.21;95878.22;29395;197;63004;-68
2021/12/26 00:50:57;;;;;;;0.60;0.60;;;;;;;2.51;96.41;95879.81;29394;207;64009;-68
2021/12/26 00:51:28;;;;;;;0.60;0.60;;;;;;;2.47;96.46;95875.25;29394;242;64004;-69
2021/12/26 00:52:01;;;;;;;0.60;0.60;;;;;;;2.43;96.25;95875.00;29395;197;63009;-67
2021/12/26 00:52:37;;;;;;;0.60;0.60;;;;;;;2.41;96.37;95876.34;29395;233;63004;-70
2021/12/26 00:53:09;;;;;;;0.60;0.60;;;;;;;2.41;96.37;95881.72;29395;212;63008;-68
2021/12/26 00:53:41;;;;;;;0.62;0.62;;;;;;;2.40;96.65;95874.75;29395;204;63015;-68
2021/12/26 00:54:17;;;;;;;1.00;1.00;;;;;;;2.40;96.60;95872.88;29395;209;63019;-70
2021/12/26 00:54:57;;;;;;;2.25;2.15;;;;;;;2.43;96.81;95879.53;29395;248;63005;-71
2021/12/26 00:55:30;;;;;;;0.60;0.60;;;;;;;2.42;96.87;95870.72;29417;229;63009;-71
2021/12/26 00:56:02;;;;;;;0.60;0.60;;;;;;;2.43;96.84;95871.50;29395;206;63005;-67
2021/12/26 00:56:39;;;;;;;0.60;0.60;;;;;;;2.42;97.12;95873.41;29394;234;64009;-67
2021/12/26 00:57:14;;;;;;;0.60;0.60;;;;;;;2.46;96.91;95868.31;29395;227;63005;-68
2021/12/26 00:57:46;;;;;;;0.70;0.70;;;;;;;2.47;97.26;95876.06;29395;328;63009;-67
2021/12/26 00:58:18;;;;;;;0.60;0.60;;;;;;;2.46;96.95;95874.47;29395;219;63004;-67
2021/12/26 00:58:49;;;;;;;0.60;0.60;;;;;;;2.44;97.01;95871.25;29395;226;63009;-70
2021/12/26 00:59:22;;;;;;;0.60;0.60;;;;;;;2.41;96.86;95866.44;29395;197;63004;-55
2021/12/26 00:59:53;;;;;;;0.60;0.60;;;;;;;2.38;96.83;95876.87;29395;199;63009;-69
2021/12/26 01:00:30;;;;;;;0.60;0.60;;;;;;;2.36;96.88;95871.78;29395;233;63004;-54
2021/12/26 01:01:02;;;;;;;0.60;0.60;;;;;;;2.34;96.90;95873.94;29395;207;63009;-69
2021/12/26 01:01:34;;;;;;;0.60;0.60;;;;;;;2.32;97.02;95873.38;29373;265;63005;-70
2021/12/26 01:02:05;;;;;;;0.60;0.60;;;;;;;2.32;97.30;95873.38;29394;251;63999;-70
2021/12/26 01:02:38;;;;;;;4.53;4.32;;;;;;;2.31;97.22;95871.78;29395;247;63005;-71
2021/12/26 01:03:11;;;;;;;0.60;0.60;;;;;;;2.32;97.34;95873.38;29395;296;63009;-69
2021/12/26 01:03:43;;;;;;;0.60;0.60;;;;;;;2.32;97.30;95871.50;29395;211;63005;-69
2021/12/26 01:04:14;;;;;;;0.60;0.60;;;;;;;2.32;97.17;95873.38;29395;213;63009;-68
2021/12/26 01:04:46;;;;;;;0.60;0.60;;;;;;;2.33;97.17;95877.66;29395;212;63005;-68
2021/12/26 01:05:21;;;;;;;0.60;0.60;;;;;;;2.34;97.40;95865.91;29395;237;63009;-55
2021/12/26 01:05:55;;;;;;;0.60;0.60;;;;;;;2.36;97.32;95874.47;29394;266;64004;-67
2021/12/26 01:06:28;;;;;;;0.60;0.60;;;;;;;2.37;97.76;95868.03;29395;312;63009;-70
2021/12/26 01:07:07;;;;;;;0.60;0.60;;;;;;;2.37;97.56;95876.06;29395;229;63004;-69
2021/12/26 01:07:57;;;;;;;0.60;0.60;;;;;;;2.37;97.34;95868.03;29395;202;63024;-54
2021/12/26 01:08:31;;;;;;;0.60;0.60;;;;;;;2.34;97.81;95866.69;29395;199;63005;-67
2021/12/26 01:09:10;;;;;;;0.60;0.60;;;;;;;2.37;97.78;95865.38;29395;234;63009;-67
2021/12/26 01:09:46;;;;;;;0.60;0.60;;;;;;;2.40;97.64;95870.19;29373;249;63008;-68
2021/12/26 01:10:19;;;;;;;0.60;0.60;;;;;;;2.41;97.74;95869.13;29395;294;63026;-70
2021/12/26 01:11:05;;;;;;;0.60;0.60;;;;;;;2.39;97.48;95868.59;29395;196;63005;-70
2021/12/26 01:11:41;;;;;;;0.60;0.60;;;;;;;2.38;97.89;95872.34;29394;203;64009;-68
2021/12/26 01:12:15;;;;;;;0.60;0.60;;;;;;;2.38;97.69;95871.53;29395;307;63005;-65
2021/12/26 01:12:51;;;;;;;0.60;0.60;;;;;;;2.38;97.91;95875.00;29371;251;64009;-55
2021/12/26 01:13:31;;;;;;;0.60;0.60;;;;;;;2.40;97.82;95874.75;29395;210;63004;-66
2021/12/26 01:14:12;;;;;;;0.68;0.68;;;;;;;2.44;97.99;95873.91;29416;236;64009;-67
2021/12/26 01:14:49;;;;;;;0.70;0.70;;;;;;;2.44;97.72;95873.91;29417;223;63004;-55
2021/12/26 01:15:23;;;;;;;0.60;0.60;;;;;;;2.44;97.91;95871.25;29395;271;63008;-69
2021/12/26 01:15:59;;;;;;;0.60;0.60;;;;;;;2.43;97.61;95869.63;29395;196;63005;-55
2021/12/26 01:16:31;;;;;;;0.60;0.60;;;;;;;2.39;97.74;95879.28;29395;240;63009;-66
2021/12/26 01:17:13;;;;;;;0.60;0.60;;;;;;;2.39;97.47;95873.94;29395;236;63016;-67
2021/12/26 01:17:57;;;;;;;0.60;0.60;;;;;;;2.40;97.78;95880.91;29394;220;64009;-69
2021/12/26 01:18:32;;;;;;;0.60;0.60;;;;;;;2.41;97.72;95874.47;29395;209;63005;-68
2021/12/26 01:19:11;;;;;;;0.60;0.60;;;;;;;2.42;97.73;95875.28;29373;278;63009;-55
2021/12/26 01:19:47;;;;;;;0.60;0.60;;;;;;;2.42;97.65;95877.97;29395;220;63014;-68
2021/12/26 01:20:41;;;;;;;0.70;0.70;;;;;;;2.42;97.63;95873.41;29395;318;63009;-67
2021/12/26 01:21:19;;;;;;;0.65;0.65;;;;;;;2.42;97.61;95878.75;29373;196;63004;-71
2021/12/26 01:21:51;;;;;;;0.60;0.60;;;;;;;2.41;97.76;95877.16;29373;215;63009;-68
2021/12/26 01:22:24;;;;;;;0.60;0.60;;;;;;;2.40;97.88;95880.91;29373;204;63004;-67
2021/12/26 01:22:55;;;;;;;0.60;0.60;;;;;;;2.39;97.67;95871.25;29371;233;64008;-55
2021/12/26 01:23:29;;;;;;;0.60;0.60;;;;;;;2.40;97.70;95880.09;29373;221;63005;-71
2021/12/26 01:24:03;;;;;;;0.50;0.50;;;;;;;2.41;98.01;95881.72;29373;241;63009;-68
2021/12/26 01:24:35;;;;;;;0.60;0.60;;;;;;;2.41;97.91;95879.03;29373;226;63005;-68
2021/12/26 01:25:09;;;;;;;0.60;0.60;;;;;;;2.43;97.71;95880.34;29395;271;63009;-69
2021/12/26 01:25:41;;;;;;;0.60;0.60;;;;;;;2.43;97.80;95880.34;29395;245;63005;-56
2021/12/26 01:26:16;;;;;;;0.60;0.60;;;;;;;2.43;98.02;95880.34;29395;199;63009;-69
2021/12/26 01:26:48;;;;;;;0.60;0.60;;;;;;;2.43;97.62;95872.31;29395;218;63004;-68
2021/12/26 01:27:20;;;;;;;0.60;0.60;;;;;;;2.43;97.86;95879.53;29395;301;63009;-55
2021/12/26 01:27:51;;;;;;;0.60;0.60;;;;;;;2.44;97.68;95871.25;29395;276;63004;-67
2021/12/26 01:28:28;;;;;;;0.60;0.60;;;;;;;2.48;97.71;95876.87;29371;228;64009;-68
2021/12/26 01:29:00;;;;;;;0.60;0.60;;;;;;;2.50;97.68;95880.09;29395;197;63004;-68
2021/12/26 01:29:35;;;;;;;0.60;0.60;;;;;;;2.47;97.67;95876.06;29373;225;63008;-68
2021/12/26 01:30:08;;;;;;;0.60;0.60;;;;;;;2.45;97.79;95875.53;29395;250;63004;-70
2021/12/26 01:30:42;;;;;;;0.60;0.60;;;;;;;2.43;97.71;95883.03;29395;202;63025;-71
2021/12/26 01:31:19;;;;;;;0.60;0.60;;;;;;;2.44;97.48;95873.91;29373;197;63005;-55
2021/12/26 01:31:52;;;;;;;0.60;0.60;;;;;;;2.42;97.69;95878.75;29395;202;63009;-67
2021/12/26 01:32:24;;;;;;;0.60;0.60;;;;;;;2.44;97.48;95887.31;29395;216;63005;-71
2021/12/26 01:32:56;;;;;;;0.60;0.60;;;;;;;2.43;97.79;95880.34;29395;248;63009;-67
2021/12/26 01:33:29;;;;;;;0.60;0.60;;;;;;;2.42;97.77;95878.75;29371;198;64005;-69
2021/12/26 01:34:05;;;;;;;0.60;0.60;;;;;;;2.43;97.52;95883.03;29395;213;63009;-55
2021/12/26 01:34:37;;;;;;;0.60;0.60;;;;;;;2.42;97.60;95884.13;29395;211;63004;-67
2021/12/26 01:35:08;;;;;;;0.60;0.60;;;;;;;2.46;97.65;95885.16;29395;204;63009;-69
2021/12/26 01:35:40;;;;;;;0.60;0.60;;;;;;;2.52;97.84;95878.75;29395;212;63004;-67
2021/12/26 01:36:12;;;;;;;0.60;0.60;;;;;;;2.51;97.86;95882.50;29396;240;63009;-69
2021/12/26 01:36:43;;;;;;;0.60;0.60;;;;;;;2.52;97.42;95885.97;29396;197;63004;-69
2021/12/26 01:37:15;;;;;;;0.60;0.60;;;;;;;2.50;97.48;95888.94;29396;235;63008;-68
2021/12/26 01:37:47;;;;;;;0.60;0.60;;;;;;;2.48;97.48;95885.72;29396;214;63005;-69
2021/12/26 01:38:19;;;;;;;0.60;0.60;;;;;;;2.45;97.35;95878.22;29396;229;63009;-69
2021/12/26 01:38:52;;;;;;;0.60;0.60;;;;;;;2.43;97.38;95884.91;29395;247;64005;-64
2021/12/26 01:39:24;;;;;;;0.60;0.60;;;;;;;2.46;97.45;95887.03;29396;221;63009;-68
2021/12/26 01:39:56;;;;;;;0.60;0.60;;;;;;;2.47;97.13;95885.97;29396;278;63017;-68
2021/12/26 01:40:28;;;;;;;0.60;0.60;;;;;;;2.49;97.26;95889.19;29396;244;63009;-67
2021/12/26 01:41:01;;;;;;;0.60;0.60;;;;;;;2.50;97.34;95890.81;29396;226;63005;-55
2021/12/26 01:41:33;;;;;;;0.60;0.60;;;;;;;2.49;97.07;95890.00;29396;219;63009;-66
2021/12/26 01:42:08;;;;;;;0.60;0.60;;;;;;;2.49;97.11;95884.63;29396;205;63004;-68
2021/12/26 01:42:39;;;;;;;0.60;0.60;;;;;;;2.48;97.08;95890.25;29396;264;63022;-55
2021/12/26 01:43:12;;;;;;;0.60;0.60;;;;;;;2.46;97.39;95884.38;29396;197;63004;-69
2021/12/26 01:43:47;;;;;;;0.60;0.60;;;;;;;2.42;97.18;95888.66;29396;235;63021;-69
2021/12/26 01:44:19;;;;;;;0.60;0.60;;;;;;;2.39;97.06;95890.00;29395;276;64004;-71
2021/12/26 01:44:51;;;;;;;0.60;0.60;;;;;;;2.39;97.35;95883.84;29396;202;63018;-55
2021/12/26 01:45:26;;;;;;;0.60;0.60;;;;;;;2.37;97.13;95886.78;29396;231;63005;-68
2021/12/26 01:46:00;;;;;;;0.60;0.60;;;;;;;2.38;97.12;95888.41;29396;239;63009;-56
2021/12/26 01:46:34;;;;;;;0.60;0.60;;;;;;;2.40;97.45;95885.44;29396;223;63005;-67
2021/12/26 01:47:07;;;;;;;0.52;0.52;;;;;;;2.41;97.36;95892.41;29396;211;63009;-66
2021/12/26 01:47:39;;;;;;;0.60;0.60;;;;;;;2.44;97.32;95887.31;29396;232;63005;-67
2021/12/26 01:48:12;;;;;;;0.60;0.60;;;;;;;2.44;97.47;95887.31;29396;243;63009;-55
2021/12/26 01:48:46;;;;;;;0.60;0.60;;;;;;;2.46;97.58;95885.16;29396;225;63005;-68
2021/12/26 01:49:22;;;;;;;0.60;0.60;;;;;;;2.45;97.59;95888.91;29396;213;63009;-69
2021/12/26 01:49:54;;;;;;;0.60;0.60;;;;;;;2.44;97.37;95881.16;29395;219;64004;-69
2021/12/26 01:50:29;;;;;;;0.60;0.60;;;;;;;2.39;96.96;95884.66;29396;218;63009;-70
2021/12/26 01:51:03;;;;;;;0.60;0.60;;;;;;;2.35;97.14;95894.28;29396;210;63004;-70
2021/12/26 01:51:35;;;;;;;0.60;0.60;;;;;;;2.33;97.05;95896.41;29396;252;63009;-68
2021/12/26 01:52:08;;;;;;;0.60;0.60;;;;;;;2.32;97.28;95882.22;29396;279;63004;-55
2021/12/26 01:52:40;;;;;;;0.60;0.60;;;;;;;2.32;97.40;95882.22;29396;218;63008;-69
2021/12/26 01:53:19;;;;;;;0.60;0.60;;;;;;;2.33;97.46;95883.03;29396;236;63017;-56
2021/12/26 01:53:53;;;;;;;5.37;5.18;;;;;;;2.34;97.52;95881.97;29396;257;63009;-55
2021/12/26 01:54:38;;;;;;;0.60;0.60;;;;;;;2.33;97.39;95880.34;29372;273;64005;-69
2021/12/26 01:55:23;;;;;;;1.90;1.90;;;;;;;2.34;97.47;95892.66;29396;196;63023;-68
2021/12/26 01:55:57;;;;;;;0.68;0.68;;;;;;;2.37;97.58;95888.66;29396;262;63013;-69
2021/12/26 01:56:29;;;;;;;0.60;0.60;;;;;;;2.38;97.67;95888.41;29396;217;63009;-69
2021/12/26 01:57:05;;;;;;;0.70;0.70;;;;;;;2.37;97.44;95886.78;29396;233;63004;-71
2021/12/26 01:57:36;;;;;;;0.62;0.62;;;;;;;2.34;97.71;95888.13;29396;219;63009;-55
2021/12/26 01:58:14;;;;;;;0.60;0.60;;;;;;;2.35;97.59;95887.03;29396;203;63004;-69
2021/12/26 01:58:49;;;;;;;0.60;0.60;;;;;;;2.34;97.62;95898.03;29395;223;64009;-70
2021/12/26 01:59:20;;;;;;;0.70;0.70;;;;;;;2.32;97.50;95889.44;29396;245;63004;-69
2021/12/26 01:59:51;;;;;;;0.60;0.60;;;;;;;2.32;97.80;95878.75;29396;232;63008;-68
2021/12/26 02:00:25;;;;;;;0.95;0.95;;;;;;;2.32;97.68;95892.13;29396;225;63005;-70
2021/12/26 02:01:04;;;;;;;0.60;0.60;;;;;;;2.32;97.95;95889.44;29396;205;63009;-55
2021/12/26 02:01:36;;;;;;;0.60;0.60;;;;;;;2.33;97.76;95893.72;29374;297;63005;-55
2021/12/26 02:02:10;;;;;;;0.60;0.60;;;;;;;2.33;98.04;95885.69;29396;197;63009;-69
2021/12/26 02:02:42;;;;;;;0.60;0.60;;;;;;;2.33;97.68;95891.84;29396;245;63005;-68
2021/12/26 02:03:18;;;;;;;1.12;1.05;;;;;;;2.37;98.08;95884.09;29372;204;64009;-56
2021/12/26 02:03:51;;;;;;;0.60;0.60;;;;;;;2.41;98.07;95893.22;29396;227;63005;-69
2021/12/26 02:04:27;;;;;;;0.60;0.60;;;;;;;2.41;97.82;95893.22;29374;206;63009;-71
2021/12/26 02:05:00;;;;;;;0.60;0.60;;;;;;;2.39;97.82;95894.56;29396;232;63004;-71
2021/12/26 02:05:32;;;;;;;0.60;0.60;;;;;;;2.38;97.78;95883.03;29396;226;63009;-55
2021/12/26 02:06:09;;;;;;;0.60;0.60;;;;;;;2.37;97.87;95892.13;29396;229;63004;-69
2021/12/26 02:06:41;;;;;;;0.60;0.60;;;;;;;2.37;98.00;95886.78;29396;284;63009;-69
2021/12/26 02:07:13;;;;;;;0.60;0.60;;;;;;;2.36;97.70;95898.56;29374;197;63004;-70
2021/12/26 02:07:45;;;;;;;0.60;0.60;;;;;;;2.34;97.87;95898.03;29396;278;63008;-69
2021/12/26 02:08:17;;;;;;;0.60;0.60;;;;;;;2.31;97.77;95896.69;29395;213;64018;-69
2021/12/26 02:08:50;;;;;;;0.60;0.60;;;;;;;2.31;97.56;95887.84;29396;288;63009;-69
2021/12/26 02:09:22;;;;;;;0.60;0.60;;;;;;;2.28;97.63;95886.50;29396;223;63005;-69
2021/12/26 02:09:54;;;;;;;0.60;0.60;;;;;;;2.29;97.57;95889.97;29374;230;63009;-55
2021/12/26 02:10:26;;;;;;;0.60;0.60;;;;;;;2.28;97.85;95889.16;29396;198;63005;-70
2021/12/26 02:11:02;;;;;;;0.60;0.60;;;;;;;2.28;97.92;95891.03;29374;237;63009;-72
2021/12/26 02:11:34;;;;;;;0.60;0.60;;;;;;;2.25;97.71;95888.88;29396;263;63004;-69
2021/12/26 02:12:08;;;;;;;0.60;0.60;;;;;;;2.24;97.63;95895.31;29396;218;63020;-56
2021/12/26 02:12:40;;;;;;;0.68;0.68;;;;;;;2.21;97.64;95891.28;29396;240;63004;-55
2021/12/26 02:13:13;;;;;;;0.60;0.60;;;;;;;2.21;97.94;95893.97;29396;202;63009;-68
2021/12/26 02:13:47;;;;;;;0.60;0.60;;;;;;;2.20;97.70;95886.19;29395;226;64004;-69
2021/12/26 02:14:20;;;;;;;0.60;0.60;;;;;;;2.19;97.94;95887.25;29396;240;63008;-55
2021/12/26 02:14:53;;;;;;;0.60;0.60;;;;;;;2.19;98.05;95892.63;29396;237;63004;-68
2021/12/26 02:15:25;;;;;;;0.60;0.60;;;;;;;2.19;98.14;95889.94;29396;323;63008;-55
2021/12/26 02:15:57;;;;;;;0.60;0.60;;;;;;;2.20;98.15;95888.88;29396;242;63005;-68
2021/12/26 02:16:29;;;;;;;0.68;0.68;;;;;;;2.19;97.85;95893.41;29396;216;63019;-67
2021/12/26 02:17:01;;;;;;;0.60;0.60;;;;;;;2.19;97.84;95881.91;29396;198;63005;-68
2021/12/26 02:17:34;;;;;;;0.60;0.60;;;;;;;2.20;98.17;95886.19;29396;210;63009;-68
2021/12/26 02:18:07;;;;;;;0.60;0.60;;;;;;;2.20;97.98;95887.00;29396;224;63005;-55
2021/12/26 02:18:40;;;;;;;0.60;0.60;;;;;;;2.21;98.15;95890.47;29396;245;63009;-56
2021/12/26 02:19:13;;;;;;;0.60;0.60;;;;;;;2.22;98.18;95894.78;29395;222;64004;-68
2021/12/26 02:19:44;;;;;;;0.60;0.60;;;;;;;2.21;97.99;95893.97;29396;218;63009;-70
2021/12/26 02:20:46;;;;;;;0.60;0.60;;;;;;;2.22;98.23;95894.78;29397;222;63016;-55
2021/12/26 02:22:13;;;;;;;0.60;0.60;;;;;;;2.24;98.13;95890.75;29419;224;63005;-70
2021/12/26 02:22:49;;;;;;;0.60;0.60;;;;;;;2.25;98.46;95883.53;29397;232;63027;-71
2021/12/26 02:24:44;;;;;;;0.60;0.60;;;;;;;2.24;98.18;95882.72;29396;222;64009;-69
2021/12/26 02:27:31;;;;;;;0.60;0.60;;;;;;;2.25;98.33;95891.56;29397;339;63018;-68
2021/12/26 02:27:46;;;;;;;0.60;0.60;;;;;;;2.24;98.18;95887.28;29374;244;64009;-69
2021/12/26 02:28:19;;;;;;;0.60;0.60;;;;;;;2.21;98.21;95883.25;29397;202;63004;-55
2021/12/26 02:28:50;;;;;;;0.60;0.60;;;;;;;2.19;98.30;95880.03;29397;197;63009;-68
2021/12/26 02:29:21;;;;;;;0.60;0.60;;;;;;;2.19;98.35;95879.25;29397;235;63004;-55
2021/12/26 02:29:52;;;;;;;0.60;0.60;;;;;;;2.18;98.43;95877.63;29397;199;63009;-67
2021/12/26 02:30:28;;;;;;;0.60;0.60;;;;;;;2.18;98.22;95880.31;29397;231;63011;-69
2021/12/26 02:30:59;;;;;;;0.60;0.60;;;;;;;2.18;98.54;95882.97;29397;211;63024;-55
2021/12/26 02:31:30;;;;;;;0.60;0.60;;;;;;;2.19;98.31;95879.25;29397;239;63005;-69
2021/12/26 02:32:06;;;;;;;0.60;0.60;;;;;;;2.19;98.70;95887.25;29397;269;63009;-68
2021/12/26 02:32:38;;;;;;;0.60;0.60;;;;;;;2.20;98.25;95883.53;29396;210;63005;-55
2021/12/26 02:33:12;;;;;;;0.62;0.62;;;;;;;2.21;98.66;95882.44;29395;218;64009;-55
2021/12/26 02:33:54;;;;;;;0.60;0.60;;;;;;;2.22;98.69;95881.38;29418;214;64005;-55
2021/12/26 02:34:26;;;;;;;0.60;0.60;;;;;;;2.24;98.35;95885.41;29396;321;63009;-55
2021/12/26 02:34:59;;;;;;;0.60;0.60;;;;;;;2.24;98.50;95881.94;29396;220;63004;-69
2021/12/26 02:35:31;;;;;;;0.60;0.60;;;;;;;2.25;98.65;95886.22;29396;232;63009;-55
2021/12/26 02:36:06;;;;;;;0.60;0.60;;;;;;;2.27;98.76;95886.75;29396;246;63009;-68
2021/12/26 02:36:38;;;;;;;0.60;0.60;;;;;;;2.28;98.63;95888.38;29396;208;63008;-55
2021/12/26 02:37:10;;;;;;;0.60;0.60;;;;;;;2.28;98.75;95891.84;29396;288;63004;-70
2021/12/26 02:37:42;;;;;;;0.60;0.60;;;;;;;2.28;98.77;95888.38;29396;223;63009;-68
2021/12/26 02:38:15;;;;;;;0.60;0.60;;;;;;;2.28;98.52;95883.00;29395;278;64005;-67
2021/12/26 02:38:48;;;;;;;0.60;0.60;;;;;;;2.27;98.60;95890.22;29396;205;63009;-68
2021/12/26 02:39:20;;;;;;;0.60;0.60;;;;;;;2.28;98.42;95888.38;29396;213;63005;-68
2021/12/26 02:39:52;;;;;;;0.60;0.60;;;;;;;2.28;98.49;95886.50;29397;279;63009;-67
2021/12/26 02:40:24;;;;;;;0.60;0.60;;;;;;;2.28;98.51;95885.69;29396;252;63005;-70
2021/12/26 02:40:58;;;;;;;0.60;0.60;;;;;;;2.29;98.84;95884.63;29396;219;63009;-68
2021/12/26 02:41:39;;;;;;;1.60;1.55;;;;;;;2.29;98.68;95884.63;29396;203;63004;-56
2021/12/26 02:42:12;;;;;;;0.60;0.60;;;;;;;2.29;98.79;95889.97;29396;207;63009;-55
2021/12/26 02:42:44;;;;;;;0.60;0.60;;;;;;;2.30;98.67;95896.94;29396;214;63004;-67
2021/12/26 02:43:19;;;;;;;0.60;0.60;;;;;;;2.30;98.68;95895.06;29395;197;64009;-68
2021/12/26 02:43:52;;;;;;;0.60;0.60;;;;;;;2.30;98.51;95886.22;29396;206;63015;-55
2021/12/26 02:44:23;;;;;;;0.60;0.60;;;;;;;2.31;98.64;95888.66;29396;253;63008;-68
2021/12/26 02:44:55;;;;;;;0.60;0.60;;;;;;;2.31;98.79;95891.31;29396;224;63005;-67
2021/12/26 02:45:26;;;;;;;0.60;0.60;;;;;;;2.32;98.36;95892.94;29396;239;63009;-55
2021/12/26 02:46:10;;;;;;;0.60;0.60;;;;;;;2.31;98.45;95887.84;29396;328;63005;-68
2021/12/26 02:46:43;;;;;;;0.60;0.60;;;;;;;2.30;98.68;95886.22;29396;198;63009;-67
2021/12/26 02:47:31;;;;;;;0.60;0.60;;;;;;;2.30;98.43;95894.25;29396;227;63005;-68
2021/12/26 02:48:06;;;;;;;0.60;0.60;;;;;;;2.29;98.45;95884.63;29396;196;63009;-68